Time;durP1;ratioP1;P1;durP2;ratioP2;P2;SDS_P1;SDS_P2;PMS_P1;PMS_P2;Temp;Humidity;BMP_temperature;BMP_pressure;BME280_temperature;BME280_humidity;BME280_pressure;Samples;Min_cycle;Max_cycle;Signal;HPM_P1;HPM_P2
2022/04/24 00:01:47;;;;;;;28.23;17.63;;;11.50;99.90;;;;;;20913971;28;20072;-77
2022/04/24 00:11:49;;;;;;;31.47;17.80;;;11.30;99.90;;;;;;20905855;28;20410;-77
2022/04/24 00:21:50;;;;;;;;;;;11.20;99.90;;;;;;20907064;28;20433;-77
2022/04/24 00:31:51;;;;;;;29.03;18.67;;;10.90;99.90;;;;;;20905292;28;20000;-76
2022/04/24 00:41:52;;;;;;;32.73;19.97;;;10.60;99.90;;;;;;20916273;28;20287;-77
2022/04/24 00:51:53;;;;;;;15.13;9.77;;;10.40;99.90;;;;;;20919167;28;20113;-77
2022/04/24 01:01:54;;;;;;;3.03;2.08;;;10.20;99.90;;;;;;20919253;28;20362;-77
2022/04/24 01:11:56;;;;;;;0.73;0.57;;;9.60;99.90;;;;;;20888269;28;20136;-77
2022/04/24 01:21:58;;;;;;;3.13;0.50;;;9.40;99.90;;;;;;20900887;28;20076;-77
2022/04/24 01:31:59;;;;;;;1.23;0.30;;;9.30;99.90;;;;;;20897448;28;20063;-77
2022/04/24 01:42:00;;;;;;;2.33;0.40;;;9.00;99.90;;;;;;20883964;28;20384;-77
2022/04/24 01:52:01;;;;;;;1.23;0.30;;;8.70;99.90;;;;;;20868571;28;20059;-77
2022/04/24 02:02:02;;;;;;;1.43;0.30;;;8.50;99.90;;;;;;20870218;28;20312;-77
2022/04/24 02:12:03;;;;;;;0.23;0.20;;;8.20;99.90;;;;;;20853814;28;20434;-77
2022/04/24 02:22:04;;;;;;;1.90;0.10;;;8.20;99.90;;;;;;20841770;28;20108;-78
2022/04/24 02:32:05;;;;;;;;;;;8.00;99.90;;;;;;20834064;28;20428;-78
2022/04/24 02:42:06;;;;;;;0.73;0.60;;;7.90;99.90;;;;;;20831010;28;19916;-77
2022/04/24 02:52:07;;;;;;;3.03;0.10;;;7.90;99.90;;;;;;20829477;28;20110;-77
2022/04/24 03:02:09;;;;;;;5.95;3.20;;;7.70;99.90;;;;;;20826154;28;20404;-78
2022/04/24 03:12:10;;;;;;;0.45;0.40;;;7.80;99.90;;;;;;20828776;28;20373;-78
2022/04/24 03:22:11;;;;;;;0.40;0.30;;;7.80;99.90;;;;;;20830029;28;20061;-78
2022/04/24 03:32:12;;;;;;;0.20;0.17;;;7.90;99.90;;;;;;20831462;28;20183;-77
2022/04/24 03:42:13;;;;;;;0.90;0.20;;;7.70;99.90;;;;;;20825413;28;20090;-77
2022/04/24 03:52:14;;;;;;;0.60;0.23;;;7.60;99.90;;;;;;20824576;28;20053;-77
2022/04/24 04:02:15;;;;;;;0.30;0.23;;;7.50;99.90;;;;;;20823895;28;20069;-77
2022/04/24 04:12:15;;;;;;;0.20;0.20;;;7.40;99.90;;;;;;20848148;28;20435;-77
2022/04/24 04:22:16;;;;;;;0.23;0.23;;;7.20;99.90;;;;;;20841278;28;20033;-76
2022/04/24 04:32:17;;;;;;;0.33;0.27;;;7.30;99.90;;;;;;20840796;28;20056;-77
2022/04/24 04:42:18;;;;;;;0.30;0.30;;;7.20;99.90;;;;;;20839820;28;20174;-77
2022/04/24 04:52:18;;;;;;;0.57;0.37;;;7.20;99.90;;;;;;20839057;28;20072;-78
2022/04/24 05:02:19;;;;;;;1.40;0.40;;;7.20;99.90;;;;;;20837051;28;20037;-78
2022/04/24 05:12:27;;;;;;;0.30;0.20;;;7.20;99.90;;;;;;20838464;28;20033;-78
2022/04/24 05:22:28;;;;;;;1.00;0.45;;;7.20;99.90;;;;;;20834356;28;20036;-77
2022/04/24 05:32:36;;;;;;;0.47;0.30;;;7.30;99.90;;;;;;20839798;28;20527;-77
2022/04/24 05:42:53;;;;;;;0.60;0.52;;;7.30;99.90;;;;;;21083355;22;20105;-74
2022/04/24 05:52:55;;;;;;;0.73;0.38;;;7.40;99.90;;;;;;20997511;28;20032;-74
2022/04/24 06:02:56;;;;;;;2.15;0.30;;;7.40;99.90;;;;;;20996430;28;20039;-74
2022/04/24 06:12:57;;;;;;;1.00;0.80;;;7.50;99.90;;;;;;20995683;28;20056;-73
2022/04/24 06:22:59;;;;;;;1.92;0.82;;;7.50;99.90;;;;;;20976977;28;20055;-75
2022/04/24 06:33:02;;;;;;;2.30;1.20;;;7.70;99.90;;;;;;20993411;28;20684;-75
2022/04/24 06:43:07;;;;;;;2.35;1.17;;;7.80;99.90;;;;;;20975410;28;20039;-76
2022/04/24 06:53:14;;;;;;;2.85;1.10;;;8.00;99.90;;;;;;20992844;28;20056;-76
2022/04/24 07:03:18;;;;;;;3.38;0.90;;;8.10;99.90;;;;;;20992048;28;20041;-75
2022/04/24 07:13:19;;;;;;;1.60;0.98;;;8.20;99.90;;;;;;20991488;28;20024;-76
2022/04/24 07:23:20;;;;;;;1.40;1.00;;;8.50;99.90;;;;;;20990744;28;20601;-74
2022/04/24 07:33:21;;;;;;;0.90;0.60;;;8.80;99.90;;;;;;20972732;28;20037;-73
2022/04/24 07:43:22;;;;;;;0.97;0.63;;;8.80;99.90;;;;;;20990867;28;20390;-74
2022/04/24 07:53:23;;;;;;;0.97;0.80;;;8.90;99.90;;;;;;21006775;28;20028;-74
2022/04/24 08:03:24;;;;;;;1.40;0.50;;;9.10;99.90;;;;;;21006042;28;20119;-74
2022/04/24 08:13:25;;;;;;;1.53;0.70;;;9.20;99.90;;;;;;21005510;28;20035;-73
2022/04/24 08:23:26;;;;;;;;;;;9.00;99.90;;;;;;21004752;28;20036;-73
2022/04/24 08:33:27;;;;;;;2.85;0.90;;;9.20;99.90;;;;;;20985653;28;19955;-73
2022/04/24 08:43:27;;;;;;;2.17;1.20;;;9.40;99.90;;;;;;20982688;28;20721;-73
2022/04/24 08:53:30;;;;;;;3.13;0.90;;;9.50;99.90;;;;;;20953628;28;20025;-73
2022/04/24 09:03:31;;;;;;;0.40;0.40;;;9.80;99.90;;;;;;20959418;28;20527;-73
2022/04/24 09:23:59;;;;;;;0.30;0.23;;;10.40;99.90;;;;;;20979152;28;20032;-73
2022/04/24 09:34:00;;;;;;;0.47;0.40;;;10.60;99.90;;;;;;20943685;28;20037;-73
2022/04/24 09:44:14;;;;;;;0.50;0.50;;;10.70;99.90;;;;;;20945435;28;20089;-73
2022/04/24 09:54:16;;;;;;;0.40;0.30;;;10.80;99.90;;;;;;20930778;28;20029;-73
2022/04/24 10:04:18;;;;;;;;;;;11.10;99.90;;;;;;20928180;28;20020;-73
2022/04/24 10:14:20;;;;;;;0.45;0.45;;;11.40;99.90;;;;;;20936917;28;19977;-73
2022/04/24 10:24:20;;;;;;;1.20;0.82;;;11.30;99.90;;;;;;20928276;28;20089;-73
2022/04/24 10:34:23;;;;;;;1.77;1.10;;;11.00;99.90;;;;;;20960562;28;20024;-72
2022/04/24 10:44:24;;;;;;;0.95;0.50;;;11.30;99.90;;;;;;20972303;28;20037;-73
2022/04/24 10:54:32;;;;;;;0.60;0.60;;;11.30;99.90;;;;;;20968962;28;20024;-73
2022/04/24 11:04:41;;;;;;;0.52;0.47;;;11.30;99.90;;;;;;20906788;28;20029;-73
2022/04/24 11:14:42;;;;;;;1.15;0.50;;;11.10;99.90;;;;;;20950641;28;20044;-74
2022/04/24 11:24:43;;;;;;;0.90;0.63;;;10.70;99.90;;;;;;20942148;28;20048;-73
2022/04/24 11:34:44;;;;;;;1.00;0.50;;;11.00;99.90;;;;;;20941637;28;20513;-73
2022/04/24 11:55:12;;;;;;;1.25;0.80;;;11.10;99.90;;;;;;21003819;28;20039;-75
2022/04/24 12:05:13;;;;;;;1.25;0.82;;;10.80;99.90;;;;;;21008495;28;20055;-75
2022/04/24 12:15:19;;;;;;;1.77;0.83;;;10.90;99.90;;;;;;20983645;28;20123;-74
2022/04/24 12:25:20;;;;;;;4.30;0.93;;;11.30;99.90;;;;;;21019149;28;20047;-75
2022/04/24 12:35:35;;;;;;;3.87;1.57;;;10.90;99.90;;;;;;21032967;28;20032;-75
2022/04/24 12:45:36;;;;;;;0.98;0.73;;;10.80;99.90;;;;;;20982208;28;20062;-75
2022/04/24 12:55:36;;;;;;;2.37;1.00;;;10.40;99.90;;;;;;20980342;28;20036;-75
2022/04/24 13:05:42;;;;;;;1.33;1.10;;;10.40;99.90;;;;;;21044947;28;20040;-75
2022/04/24 13:15:43;;;;;;;1.83;1.40;;;10.30;99.90;;;;;;20991969;28;20039;-75
2022/04/24 13:25:44;;;;;;;1.43;0.60;;;10.40;99.90;;;;;;20979869;28;20024;-75
2022/04/24 13:35:45;;;;;;;0.98;0.30;;;10.70;99.90;;;;;;21010902;28;20759;-75
2022/04/24 13:45:48;;;;;;;1.20;0.30;;;10.60;99.90;;;;;;21017761;28;20044;-75
2022/04/24 13:55:49;;;;;;;1.30;0.95;;;10.60;99.90;;;;;;20987391;28;20494;-75
2022/04/24 14:05:51;;;;;;;0.30;0.20;;;10.70;99.90;;;;;;20989667;28;20089;-76
2022/04/24 14:15:52;;;;;;;0.28;0.28;;;10.80;99.90;;;;;;21016856;28;20028;-76
2022/04/24 14:25:53;;;;;;;0.20;0.20;;;10.60;99.90;;;;;;21016712;28;20051;-76
2022/04/24 14:35:54;;;;;;;0.23;0.23;;;10.40;99.90;;;;;;21012837;28;20031;-75
2022/04/24 14:56:14;;;;;;;0.45;0.35;;;10.10;99.90;;;;;;20999526;28;20028;-75
2022/04/24 15:06:15;;;;;;;0.40;0.33;;;10.20;99.90;;;;;;21011055;28;20078;-74
2022/04/24 15:16:17;;;;;;;0.33;0.33;;;10.30;99.90;;;;;;21008840;28;20028;-75
2022/04/24 15:26:17;;;;;;;3.85;0.60;;;10.10;99.90;;;;;;21003917;28;20067;-75
2022/04/24 15:36:18;;;;;;;1.03;0.63;;;10.00;99.90;;;;;;21009444;28;20119;-74
2022/04/24 15:46:19;;;;;;;3.13;0.53;;;10.00;99.90;;;;;;21006213;28;20712;-74
2022/04/24 15:56:20;;;;;;;0.70;0.50;;;10.10;99.90;;;;;;21005856;28;20028;-75
2022/04/24 16:06:21;;;;;;;0.33;0.30;;;10.00;99.90;;;;;;21013580;28;20024;-74
2022/04/24 16:16:21;;;;;;;0.60;0.47;;;10.00;99.90;;;;;;21024856;28;20024;-75
2022/04/24 16:26:22;;;;;;;0.63;0.50;;;9.80;99.90;;;;;;21040658;28;20107;-74
2022/04/24 16:36:23;;;;;;;1.43;0.70;;;9.50;99.90;;;;;;21030594;28;20086;-74
2022/04/24 16:46:24;;;;;;;2.83;1.00;;;9.50;99.90;;;;;;20981871;28;20044;-74
2022/04/24 17:06:45;;;;;;;1.38;0.80;;;9.30;99.90;;;;;;20983080;28;19927;-74
2022/04/24 17:16:46;;;;;;;4.27;1.87;;;9.20;99.90;;;;;;20977866;28;20045;-74
2022/04/24 17:26:48;;;;;;;5.97;1.90;;;9.10;99.90;;;;;;20975948;28;20029;-76
2022/04/24 17:36:48;;;;;;;;;;;9.10;99.90;;;;;;20958479;28;20067;-74
2022/04/24 17:46:50;;;;;;;3.97;1.90;;;9.10;99.90;;;;;;20984123;28;19922;-76
2022/04/24 17:56:52;;;;;;;2.72;2.00;;;9.10;99.90;;;;;;21041661;28;20038;-74
2022/04/24 18:06:52;;;;;;;2.10;1.60;;;9.00;99.90;;;;;;21041643;28;20130;-74
2022/04/24 18:16:54;;;;;;;4.35;2.80;;;9.10;99.90;;;;;;21049349;28;20731;-75
2022/04/24 18:26:56;;;;;;;5.00;2.67;;;9.10;99.90;;;;;;21059164;28;20058;-76
2022/04/24 18:47:16;;;;;;;3.65;3.00;;;9.10;99.90;;;;;;20889202;28;20443;-74
2022/04/24 18:57:18;;;;;;;7.43;5.20;;;9.00;99.90;;;;;;20938061;28;20124;-74
2022/04/24 19:07:36;;;;;;;7.93;4.88;;;9.00;99.90;;;;;;20974290;28;20110;-73
2022/04/24 19:17:37;;;;;;;13.55;6.20;;;9.00;99.90;;;;;;20973786;28;20036;-75
2022/04/24 19:27:40;;;;;;;11.27;4.63;;;9.00;99.90;;;;;;20967489;28;20062;-75
2022/04/24 19:37:41;;;;;;;6.35;5.30;;;9.00;99.90;;;;;;20981412;28;20510;-75
2022/04/24 19:58:02;;;;;;;8.50;5.15;;;9.00;99.90;;;;;;20997327;28;20082;-76
2022/04/24 20:08:04;;;;;;;10.13;7.60;;;9.00;99.90;;;;;;21016718;28;20079;-74
2022/04/24 20:18:05;;;;;;;11.45;7.50;;;9.00;99.90;;;;;;21055438;28;20851;-75
2022/04/24 20:28:06;;;;;;;12.93;7.23;;;9.10;99.90;;;;;;21079976;28;20039;-75
2022/04/24 20:38:07;;;;;;;7.93;5.73;;;9.10;99.90;;;;;;21028329;28;20126;-75
2022/04/24 20:48:07;;;;;;;7.73;5.37;;;9.20;99.90;;;;;;20996735;28;20286;-74
2022/04/24 20:58:08;;;;;;;7.37;5.03;;;9.20;99.90;;;;;;20997992;28;20033;-75
2022/04/24 21:08:09;;;;;;;7.67;4.33;;;9.20;99.90;;;;;;21008226;28;20031;-74
2022/04/24 21:18:10;;;;;;;4.33;3.60;;;9.20;99.90;;;;;;20982547;28;20035;-74
2022/04/24 21:28:11;;;;;;;7.07;5.00;;;9.20;99.90;;;;;;20974912;28;20036;-76
2022/04/24 21:38:12;;;;;;;10.17;6.30;;;9.30;99.90;;;;;;20996996;28;20051;-74
2022/04/24 21:48:13;;;;;;;76.25;9.18;;;9.40;99.90;;;;;;21010265;28;20036;-75
2022/04/24 21:58:14;;;;;;;229.67;14.10;;;9.30;99.90;;;;;;20960024;28;20047;-74
2022/04/24 22:08:16;;;;;;;10.33;6.00;;;9.40;99.90;;;;;;21083240;28;20383;-73
2022/04/24 22:18:17;;;;;;;8.10;5.50;;;9.30;99.90;;;;;;21080357;28;20039;-74
2022/04/24 22:28:18;;;;;;;9.50;6.00;;;9.20;99.90;;;;;;21078117;28;20487;-74
2022/04/24 22:38:19;;;;;;;7.50;5.40;;;9.20;99.90;;;;;;21078385;28;20549;-74
2022/04/24 22:48:20;;;;;;;6.97;4.70;;;9.10;99.90;;;;;;21077089;28;20078;-74
2022/04/24 22:58:21;;;;;;;7.07;4.83;;;9.10;99.90;;;;;;21075574;28;20043;-74
2022/04/24 23:08:22;;;;;;;6.17;3.87;;;9.20;99.90;;;;;;21075727;28;20028;-74
2022/04/24 23:28:42;;;;;;;6.22;4.28;;;9.20;99.90;;;;;;21073103;28;20036;-74
2022/04/24 23:38:43;;;;;;;8.17;4.97;;;9.20;99.90;;;;;;21073826;28;20123;-74
2022/04/24 23:48:44;;;;;;;8.43;5.93;;;9.20;99.90;;;;;;21093809;22;20073;-72
2022/04/24 23:58:46;;;;;;;7.63;5.30;;;9.20;99.90;;;;;;21073326;28;20035;-73
